sensor_id;sensor_type;location;lat;lon;timestamp;temperature;humidity
68922;DHT22;55959;51.244;5.724;2023-05-07T00:00:38;19.20;68.80
68922;DHT22;55959;51.244;5.724;2023-05-07T00:03:04;19.20;68.60
68922;DHT22;55959;51.244;5.724;2023-05-07T00:05:31;19.20;68.60
68922;DHT22;55959;51.244;5.724;2023-05-07T00:07:57;19.20;68.60
68922;DHT22;55959;51.244;5.724;2023-05-07T00:10:23;19.20;68.60
68922;DHT22;55959;51.244;5.724;2023-05-07T00:12:49;19.20;68.70
68922;DHT22;55959;51.244;5.724;2023-05-07T00:15:14;19.20;68.80
68922;DHT22;55959;51.244;5.724;2023-05-07T00:17:40;19.10;68.70
68922;DHT22;55959;51.244;5.724;2023-05-07T00:20:07;19.20;68.90
68922;DHT22;55959;51.244;5.724;2023-05-07T00:22:33;19.20;69.00
68922;DHT22;55959;51.244;5.724;2023-05-07T00:24:59;19.20;68.90
68922;DHT22;55959;51.244;5.724;2023-05-07T00:27:25;19.10;68.80
68922;DHT22;55959;51.244;5.724;2023-05-07T00:29:51;19.10;69.00
68922;DHT22;55959;51.244;5.724;2023-05-07T00:32:17;19.20;69.20
68922;DHT22;55959;51.244;5.724;2023-05-07T00:34:43;19.20;69.30
68922;DHT22;55959;51.244;5.724;2023-05-07T00:37:09;19.20;69.20
68922;DHT22;55959;51.244;5.724;2023-05-07T00:39:35;19.20;69.20
68922;DHT22;55959;51.244;5.724;2023-05-07T00:42:01;19.20;69.30
68922;DHT22;55959;51.244;5.724;2023-05-07T00:44:28;19.20;69.40
68922;DHT22;55959;51.244;5.724;2023-05-07T00:46:56;19.10;69.40
68922;DHT22;55959;51.244;5.724;2023-05-07T00:49:25;19.20;69.40
68922;DHT22;55959;51.244;5.724;2023-05-07T00:51:59;19.20;69.40
68922;DHT22;55959;51.244;5.724;2023-05-07T00:54:26;19.20;69.30
68922;DHT22;55959;51.244;5.724;2023-05-07T00:56:52;19.20;69.40
68922;DHT22;55959;51.244;5.724;2023-05-07T00:59:17;19.10;69.50
68922;DHT22;55959;51.244;5.724;2023-05-07T01:01:44;19.10;69.60
68922;DHT22;55959;51.244;5.724;2023-05-07T01:04:09;19.10;69.60
68922;DHT22;55959;51.244;5.724;2023-05-07T01:06:35;19.10;69.70
68922;DHT22;55959;51.244;5.724;2023-05-07T01:09:01;19.10;69.60
68922;DHT22;55959;51.244;5.724;2023-05-07T01:11:28;19.10;69.60
68922;DHT22;55959;51.244;5.724;2023-05-07T01:13:54;19.10;69.80
68922;DHT22;55959;51.244;5.724;2023-05-07T01:16:20;19.10;69.80
68922;DHT22;55959;51.244;5.724;2023-05-07T01:18:45;19.10;69.80
68922;DHT22;55959;51.244;5.724;2023-05-07T01:21:15;19.10;69.80
68922;DHT22;55959;51.244;5.724;2023-05-07T01:23:43;19.10;69.80
68922;DHT22;55959;51.244;5.724;2023-05-07T01:26:10;19.10;69.90
68922;DHT22;55959;51.244;5.724;2023-05-07T01:28:36;19.10;70.00
68922;DHT22;55959;51.244;5.724;2023-05-07T01:31:03;19.00;70.00
68922;DHT22;55959;51.244;5.724;2023-05-07T01:33:32;19.00;70.20
68922;DHT22;55959;51.244;5.724;2023-05-07T01:36:00;19.00;70.20
68922;DHT22;55959;51.244;5.724;2023-05-07T01:38:29;19.00;70.30
68922;DHT22;55959;51.244;5.724;2023-05-07T01:40:55;19.00;70.30
68922;DHT22;55959;51.244;5.724;2023-05-07T01:43:22;19.00;70.20
68922;DHT22;55959;51.244;5.724;2023-05-07T01:45:48;19.00;70.30
68922;DHT22;55959;51.244;5.724;2023-05-07T01:48:15;19.00;70.40
68922;DHT22;55959;51.244;5.724;2023-05-07T01:50:42;18.90;70.40
68922;DHT22;55959;51.244;5.724;2023-05-07T01:53:08;19.00;70.50
68922;DHT22;55959;51.244;5.724;2023-05-07T01:55:34;19.00;70.50
68922;DHT22;55959;51.244;5.724;2023-05-07T01:58:02;18.90;70.60
68922;DHT22;55959;51.244;5.724;2023-05-07T02:00:28;18.90;70.60
68922;DHT22;55959;51.244;5.724;2023-05-07T02:02:54;18.90;70.50
68922;DHT22;55959;51.244;5.724;2023-05-07T02:05:20;18.90;70.40
68922;DHT22;55959;51.244;5.724;2023-05-07T02:07:45;18.90;70.40
68922;DHT22;55959;51.244;5.724;2023-05-07T02:10:11;18.90;70.50
68922;DHT22;55959;51.244;5.724;2023-05-07T02:12:37;18.90;70.60
68922;DHT22;55959;51.244;5.724;2023-05-07T02:15:03;18.90;70.60
68922;DHT22;55959;51.244;5.724;2023-05-07T02:17:29;18.90;70.70
68922;DHT22;55959;51.244;5.724;2023-05-07T02:19:57;18.90;70.60
68922;DHT22;55959;51.244;5.724;2023-05-07T02:22:23;18.90;70.80
68922;DHT22;55959;51.244;5.724;2023-05-07T02:24:48;18.80;70.80
68922;DHT22;55959;51.244;5.724;2023-05-07T02:27:14;18.80;70.80
68922;DHT22;55959;51.244;5.724;2023-05-07T02:29:40;18.80;70.80
68922;DHT22;55959;51.244;5.724;2023-05-07T02:32:06;18.80;70.80
68922;DHT22;55959;51.244;5.724;2023-05-07T02:34:32;18.80;70.90
68922;DHT22;55959;51.244;5.724;2023-05-07T02:36:57;18.80;70.90
68922;DHT22;55959;51.244;5.724;2023-05-07T02:39:23;18.80;70.90
68922;DHT22;55959;51.244;5.724;2023-05-07T02:41:49;18.80;70.80
68922;DHT22;55959;51.244;5.724;2023-05-07T02:44:15;18.80;70.70
68922;DHT22;55959;51.244;5.724;2023-05-07T02:46:40;18.70;70.80
68922;DHT22;55959;51.244;5.724;2023-05-07T02:49:06;18.80;70.80
68922;DHT22;55959;51.244;5.724;2023-05-07T02:51:32;18.80;70.70
68922;DHT22;55959;51.244;5.724;2023-05-07T02:53:58;18.70;70.60
68922;DHT22;55959;51.244;5.724;2023-05-07T02:56:25;18.70;70.70
68922;DHT22;55959;51.244;5.724;2023-05-07T02:58:51;18.70;70.90
68922;DHT22;55959;51.244;5.724;2023-05-07T03:01:17;18.70;70.90
68922;DHT22;55959;51.244;5.724;2023-05-07T03:03:43;18.70;71.00
68922;DHT22;55959;51.244;5.724;2023-05-07T03:06:09;18.70;70.90
68922;DHT22;55959;51.244;5.724;2023-05-07T03:08:35;18.70;71.10
68922;DHT22;55959;51.244;5.724;2023-05-07T03:11:02;18.70;71.10
68922;DHT22;55959;51.244;5.724;2023-05-07T03:13:28;18.70;71.20
68922;DHT22;55959;51.244;5.724;2023-05-07T03:15:53;18.70;71.10
68922;DHT22;55959;51.244;5.724;2023-05-07T03:18:19;18.70;71.20
68922;DHT22;55959;51.244;5.724;2023-05-07T03:20:45;18.70;71.20
68922;DHT22;55959;51.244;5.724;2023-05-07T03:23:11;18.70;71.30
68922;DHT22;55959;51.244;5.724;2023-05-07T03:25:37;18.70;71.30
68922;DHT22;55959;51.244;5.724;2023-05-07T03:28:02;18.70;71.10
68922;DHT22;55959;51.244;5.724;2023-05-07T03:30:28;18.60;71.10
68922;DHT22;55959;51.244;5.724;2023-05-07T03:32:54;18.70;71.30
68922;DHT22;55959;51.244;5.724;2023-05-07T03:35:20;18.60;71.30
68922;DHT22;55959;51.244;5.724;2023-05-07T03:37:45;18.60;71.20
68922;DHT22;55959;51.244;5.724;2023-05-07T03:40:12;18.60;71.30
68922;DHT22;55959;51.244;5.724;2023-05-07T03:42:38;18.60;71.20
68922;DHT22;55959;51.244;5.724;2023-05-07T03:45:04;18.60;72.00
68922;DHT22;55959;51.244;5.724;2023-05-07T03:47:31;18.60;71.30
68922;DHT22;55959;51.244;5.724;2023-05-07T03:49:57;18.60;71.20
68922;DHT22;55959;51.244;5.724;2023-05-07T03:52:23;18.60;71.20
68922;DHT22;55959;51.244;5.724;2023-05-07T03:54:53;18.60;71.30
68922;DHT22;55959;51.244;5.724;2023-05-07T03:57:19;18.60;71.40
68922;DHT22;55959;51.244;5.724;2023-05-07T03:59:45;18.50;71.30
68922;DHT22;55959;51.244;5.724;2023-05-07T04:02:11;18.50;71.50
68922;DHT22;55959;51.244;5.724;2023-05-07T04:04:36;18.50;71.50
68922;DHT22;55959;51.244;5.724;2023-05-07T04:07:02;18.50;71.60
68922;DHT22;55959;51.244;5.724;2023-05-07T04:09:28;18.60;71.70
68922;DHT22;55959;51.244;5.724;2023-05-07T04:11:54;18.50;71.50
68922;DHT22;55959;51.244;5.724;2023-05-07T04:14:20;18.50;71.60
68922;DHT22;55959;51.244;5.724;2023-05-07T04:16:46;18.50;71.70
68922;DHT22;55959;51.244;5.724;2023-05-07T04:19:12;18.50;71.60
68922;DHT22;55959;51.244;5.724;2023-05-07T04:21:38;18.50;71.70
68922;DHT22;55959;51.244;5.724;2023-05-07T04:24:04;18.50;71.80
68922;DHT22;55959;51.244;5.724;2023-05-07T04:26:30;18.50;71.80
68922;DHT22;55959;51.244;5.724;2023-05-07T04:28:57;18.50;71.90
68922;DHT22;55959;51.244;5.724;2023-05-07T04:31:24;18.50;71.90
68922;DHT22;55959;51.244;5.724;2023-05-07T04:33:50;18.50;71.90
68922;DHT22;55959;51.244;5.724;2023-05-07T04:36:16;18.50;72.10
68922;DHT22;55959;51.244;5.724;2023-05-07T04:38:42;18.50;72.10
68922;DHT22;55959;51.244;5.724;2023-05-07T04:41:09;18.50;72.10
68922;DHT22;55959;51.244;5.724;2023-05-07T04:43:34;18.50;72.30
68922;DHT22;55959;51.244;5.724;2023-05-07T04:46:00;18.50;72.30
68922;DHT22;55959;51.244;5.724;2023-05-07T04:48:26;18.50;72.30
68922;DHT22;55959;51.244;5.724;2023-05-07T04:50:52;18.50;72.40
68922;DHT22;55959;51.244;5.724;2023-05-07T04:53:19;18.50;72.40
68922;DHT22;55959;51.244;5.724;2023-05-07T04:55:45;18.50;72.50
68922;DHT22;55959;51.244;5.724;2023-05-07T04:58:11;18.50;72.50
68922;DHT22;55959;51.244;5.724;2023-05-07T05:00:38;18.50;73.50
68922;DHT22;55959;51.244;5.724;2023-05-07T05:03:07;18.50;72.60
68922;DHT22;55959;51.244;5.724;2023-05-07T05:05:33;18.50;72.70
68922;DHT22;55959;51.244;5.724;2023-05-07T05:07:59;18.50;72.90
68922;DHT22;55959;51.244;5.724;2023-05-07T05:10:25;18.50;72.90
68922;DHT22;55959;51.244;5.724;2023-05-07T05:12:51;18.50;73.00
68922;DHT22;55959;51.244;5.724;2023-05-07T05:15:20;18.50;73.10
68922;DHT22;55959;51.244;5.724;2023-05-07T05:17:45;18.50;73.10
68922;DHT22;55959;51.244;5.724;2023-05-07T05:20:11;18.60;73.10
68922;DHT22;55959;51.244;5.724;2023-05-07T05:22:37;18.60;73.10
68922;DHT22;55959;51.244;5.724;2023-05-07T05:25:04;18.60;73.20
68922;DHT22;55959;51.244;5.724;2023-05-07T05:27:30;18.60;73.30
68922;DHT22;55959;51.244;5.724;2023-05-07T05:29:56;18.60;73.30
68922;DHT22;55959;51.244;5.724;2023-05-07T05:32:21;18.60;73.40
68922;DHT22;55959;51.244;5.724;2023-05-07T05:34:47;18.60;73.40
68922;DHT22;55959;51.244;5.724;2023-05-07T05:37:13;18.70;73.50
68922;DHT22;55959;51.244;5.724;2023-05-07T05:39:39;18.70;73.50
68922;DHT22;55959;51.244;5.724;2023-05-07T05:42:04;18.70;73.50
68922;DHT22;55959;51.244;5.724;2023-05-07T05:44:30;18.70;73.50
68922;DHT22;55959;51.244;5.724;2023-05-07T05:46:56;18.70;73.60
68922;DHT22;55959;51.244;5.724;2023-05-07T05:49:24;18.70;73.70
68922;DHT22;55959;51.244;5.724;2023-05-07T05:51:50;18.70;73.70
68922;DHT22;55959;51.244;5.724;2023-05-07T05:54:16;18.70;73.80
68922;DHT22;55959;51.244;5.724;2023-05-07T05:56:42;18.70;73.80
68922;DHT22;55959;51.244;5.724;2023-05-07T05:59:08;18.70;73.70
68922;DHT22;55959;51.244;5.724;2023-05-07T06:01:34;18.80;73.70
68922;DHT22;55959;51.244;5.724;2023-05-07T06:04:00;18.80;73.70
68922;DHT22;55959;51.244;5.724;2023-05-07T06:06:26;18.80;73.70
68922;DHT22;55959;51.244;5.724;2023-05-07T06:08:52;18.80;73.70
68922;DHT22;55959;51.244;5.724;2023-05-07T06:11:18;18.80;73.70
68922;DHT22;55959;51.244;5.724;2023-05-07T06:13:44;18.80;73.90
68922;DHT22;55959;51.244;5.724;2023-05-07T06:16:09;18.80;74.10
68922;DHT22;55959;51.244;5.724;2023-05-07T06:18:35;18.80;74.20
68922;DHT22;55959;51.244;5.724;2023-05-07T06:21:01;18.80;74.20
68922;DHT22;55959;51.244;5.724;2023-05-07T06:23:27;18.90;74.30
68922;DHT22;55959;51.244;5.724;2023-05-07T06:25:53;18.90;74.30
68922;DHT22;55959;51.244;5.724;2023-05-07T06:28:19;18.90;74.40
68922;DHT22;55959;51.244;5.724;2023-05-07T06:30:44;18.90;74.20
68922;DHT22;55959;51.244;5.724;2023-05-07T06:33:10;19.00;74.30
68922;DHT22;55959;51.244;5.724;2023-05-07T06:35:36;19.00;74.40
68922;DHT22;55959;51.244;5.724;2023-05-07T06:38:02;19.00;74.40
68922;DHT22;55959;51.244;5.724;2023-05-07T06:40:27;19.10;74.40
68922;DHT22;55959;51.244;5.724;2023-05-07T06:42:53;19.10;74.30
68922;DHT22;55959;51.244;5.724;2023-05-07T06:45:19;19.10;74.40
68922;DHT22;55959;51.244;5.724;2023-05-07T06:47:45;19.10;74.60
68922;DHT22;55959;51.244;5.724;2023-05-07T06:50:11;19.20;74.60
68922;DHT22;55959;51.244;5.724;2023-05-07T06:52:37;19.20;74.50
68922;DHT22;55959;51.244;5.724;2023-05-07T06:55:03;19.20;74.40
68922;DHT22;55959;51.244;5.724;2023-05-07T06:57:29;19.30;74.20
68922;DHT22;55959;51.244;5.724;2023-05-07T06:59:55;19.30;74.20
68922;DHT22;55959;51.244;5.724;2023-05-07T07:02:21;19.40;74.20
68922;DHT22;55959;51.244;5.724;2023-05-07T07:04:46;19.40;74.00
68922;DHT22;55959;51.244;5.724;2023-05-07T07:07:12;19.40;73.90
68922;DHT22;55959;51.244;5.724;2023-05-07T07:09:38;19.50;73.70
68922;DHT22;55959;51.244;5.724;2023-05-07T07:12:04;19.50;73.80
68922;DHT22;55959;51.244;5.724;2023-05-07T07:14:29;19.60;74.00
68922;DHT22;55959;51.244;5.724;2023-05-07T07:16:55;19.60;73.90
68922;DHT22;55959;51.244;5.724;2023-05-07T07:19:21;19.60;73.60
68922;DHT22;55959;51.244;5.724;2023-05-07T07:21:46;19.60;73.30
68922;DHT22;55959;51.244;5.724;2023-05-07T07:24:13;19.70;73.20
68922;DHT22;55959;51.244;5.724;2023-05-07T07:26:44;19.70;73.00
68922;DHT22;55959;51.244;5.724;2023-05-07T07:29:10;19.70;73.80
68922;DHT22;55959;51.244;5.724;2023-05-07T07:31:36;19.80;73.10
68922;DHT22;55959;51.244;5.724;2023-05-07T07:34:01;19.80;73.00
68922;DHT22;55959;51.244;5.724;2023-05-07T07:36:27;19.80;73.10
68922;DHT22;55959;51.244;5.724;2023-05-07T07:38:54;19.90;73.20
68922;DHT22;55959;51.244;5.724;2023-05-07T07:41:19;19.90;73.10
68922;DHT22;55959;51.244;5.724;2023-05-07T07:43:45;19.90;73.00
68922;DHT22;55959;51.244;5.724;2023-05-07T07:46:12;19.90;72.80
68922;DHT22;55959;51.244;5.724;2023-05-07T07:48:37;20.00;72.60
68922;DHT22;55959;51.244;5.724;2023-05-07T07:51:04;20.00;72.40
68922;DHT22;55959;51.244;5.724;2023-05-07T07:53:30;20.00;72.10
68922;DHT22;55959;51.244;5.724;2023-05-07T07:55:56;20.10;71.70
68922;DHT22;55959;51.244;5.724;2023-05-07T07:58:22;20.10;71.70
68922;DHT22;55959;51.244;5.724;2023-05-07T08:00:48;20.10;71.40
68922;DHT22;55959;51.244;5.724;2023-05-07T08:03:14;20.10;71.10
68922;DHT22;55959;51.244;5.724;2023-05-07T08:05:42;20.10;71.20
68922;DHT22;55959;51.244;5.724;2023-05-07T08:08:08;20.10;71.30
68922;DHT22;55959;51.244;5.724;2023-05-07T08:10:35;20.20;71.40
68922;DHT22;55959;51.244;5.724;2023-05-07T08:13:03;20.20;71.40
68922;DHT22;55959;51.244;5.724;2023-05-07T08:15:30;20.20;71.20
68922;DHT22;55959;51.244;5.724;2023-05-07T08:17:55;20.20;70.80
68922;DHT22;55959;51.244;5.724;2023-05-07T08:20:23;20.30;70.70
68922;DHT22;55959;51.244;5.724;2023-05-07T08:22:49;20.30;70.40
68922;DHT22;55959;51.244;5.724;2023-05-07T08:25:15;20.30;71.30
68922;DHT22;55959;51.244;5.724;2023-05-07T08:27:40;20.30;70.50
68922;DHT22;55959;51.244;5.724;2023-05-07T08:30:06;20.30;70.40
68922;DHT22;55959;51.244;5.724;2023-05-07T08:32:33;20.40;70.50
68922;DHT22;55959;51.244;5.724;2023-05-07T08:34:59;20.40;70.50
68922;DHT22;55959;51.244;5.724;2023-05-07T08:37:25;20.50;70.20
68922;DHT22;55959;51.244;5.724;2023-05-07T08:39:51;20.50;70.20
68922;DHT22;55959;51.244;5.724;2023-05-07T08:42:17;20.50;70.20
68922;DHT22;55959;51.244;5.724;2023-05-07T08:44:45;20.60;70.60
68922;DHT22;55959;51.244;5.724;2023-05-07T08:47:12;20.60;70.30
68922;DHT22;55959;51.244;5.724;2023-05-07T08:49:38;20.70;70.30
68922;DHT22;55959;51.244;5.724;2023-05-07T08:52:04;20.70;70.30
68922;DHT22;55959;51.244;5.724;2023-05-07T08:54:30;20.80;70.20
68922;DHT22;55959;51.244;5.724;2023-05-07T08:56:56;20.80;69.80
68922;DHT22;55959;51.244;5.724;2023-05-07T08:59:22;20.90;69.50
68922;DHT22;55959;51.244;5.724;2023-05-07T09:01:48;21.00;68.90
68922;DHT22;55959;51.244;5.724;2023-05-07T09:04:14;21.00;68.40
68922;DHT22;55959;51.244;5.724;2023-05-07T09:06:40;21.10;68.20
68922;DHT22;55959;51.244;5.724;2023-05-07T09:09:07;21.20;67.90
68922;DHT22;55959;51.244;5.724;2023-05-07T09:11:33;21.20;68.60
68922;DHT22;55959;51.244;5.724;2023-05-07T09:13:59;21.30;68.50
68922;DHT22;55959;51.244;5.724;2023-05-07T09:16:28;21.30;67.70
68922;DHT22;55959;51.244;5.724;2023-05-07T09:18:58;21.40;67.70
68922;DHT22;55959;51.244;5.724;2023-05-07T09:21:25;21.50;68.80
68922;DHT22;55959;51.244;5.724;2023-05-07T09:23:52;21.50;69.20
68922;DHT22;55959;51.244;5.724;2023-05-07T09:26:22;21.60;69.20
68922;DHT22;55959;51.244;5.724;2023-05-07T09:28:48;21.70;68.90
68922;DHT22;55959;51.244;5.724;2023-05-07T09:31:14;21.80;67.60
68922;DHT22;55959;51.244;5.724;2023-05-07T09:33:40;21.90;67.50
68922;DHT22;55959;51.244;5.724;2023-05-07T09:36:07;21.90;65.00
68922;DHT22;55959;51.244;5.724;2023-05-07T09:38:35;22.00;64.90
68922;DHT22;55959;51.244;5.724;2023-05-07T09:41:03;22.00;65.10
68922;DHT22;55959;51.244;5.724;2023-05-07T09:43:37;22.10;64.60
68922;DHT22;55959;51.244;5.724;2023-05-07T09:46:14;22.20;64.90
68922;DHT22;55959;51.244;5.724;2023-05-07T09:48:43;22.20;65.90
68922;DHT22;55959;51.244;5.724;2023-05-07T09:51:22;22.30;66.40
68922;DHT22;55959;51.244;5.724;2023-05-07T09:53:52;22.40;65.50
68922;DHT22;55959;51.244;5.724;2023-05-07T09:56:19;22.50;63.90
68922;DHT22;55959;51.244;5.724;2023-05-07T09:58:45;22.50;62.40
68922;DHT22;55959;51.244;5.724;2023-05-07T10:01:12;22.60;62.50
68922;DHT22;55959;51.244;5.724;2023-05-07T10:03:41;22.70;62.50
68922;DHT22;55959;51.244;5.724;2023-05-07T10:06:09;22.70;62.70
68922;DHT22;55959;51.244;5.724;2023-05-07T10:08:36;22.70;62.30
68922;DHT22;55959;51.244;5.724;2023-05-07T10:11:04;22.80;61.80
68922;DHT22;55959;51.244;5.724;2023-05-07T10:13:30;22.80;61.70
68922;DHT22;55959;51.244;5.724;2023-05-07T10:15:57;22.90;62.10
68922;DHT22;55959;51.244;5.724;2023-05-07T10:18:23;23.00;61.10
68922;DHT22;55959;51.244;5.724;2023-05-07T10:20:55;23.00;60.80
68922;DHT22;55959;51.244;5.724;2023-05-07T10:23:23;23.10;60.30
68922;DHT22;55959;51.244;5.724;2023-05-07T10:25:50;23.10;59.90
68922;DHT22;55959;51.244;5.724;2023-05-07T10:28:17;23.10;59.40
68922;DHT22;55959;51.244;5.724;2023-05-07T10:31:08;23.20;59.70
68922;DHT22;55959;51.244;5.724;2023-05-07T10:33:55;23.20;58.90
68922;DHT22;55959;51.244;5.724;2023-05-07T10:36:22;23.20;59.00
68922;DHT22;55959;51.244;5.724;2023-05-07T10:38:49;23.30;58.80
68922;DHT22;55959;51.244;5.724;2023-05-07T10:41:15;23.30;59.50
68922;DHT22;55959;51.244;5.724;2023-05-07T10:43:43;23.40;60.10
68922;DHT22;55959;51.244;5.724;2023-05-07T10:46:18;23.50;59.70
68922;DHT22;55959;51.244;5.724;2023-05-07T10:51:26;23.60;59.30
68922;DHT22;55959;51.244;5.724;2023-05-07T10:56:37;23.70;58.80
68922;DHT22;55959;51.244;5.724;2023-05-07T11:01:57;23.80;57.80
68922;DHT22;55959;51.244;5.724;2023-05-07T11:04:28;23.90;58.20
68922;DHT22;55959;51.244;5.724;2023-05-07T11:10:00;24.00;57.30
68922;DHT22;55959;51.244;5.724;2023-05-07T11:15:08;24.10;57.40
68922;DHT22;55959;51.244;5.724;2023-05-07T11:17:54;24.10;56.50
68922;DHT22;55959;51.244;5.724;2023-05-07T11:26:08;24.40;56.80
68922;DHT22;55959;51.244;5.724;2023-05-07T11:28:39;24.40;56.20
68922;DHT22;55959;51.244;5.724;2023-05-07T11:31:06;24.40;56.20
68922;DHT22;55959;51.244;5.724;2023-05-07T11:33:32;24.40;56.80
68922;DHT22;55959;51.244;5.724;2023-05-07T11:36:00;24.50;55.70
68922;DHT22;55959;51.244;5.724;2023-05-07T11:38:28;24.60;54.60
68922;DHT22;55959;51.244;5.724;2023-05-07T11:40:57;24.60;53.90
68922;DHT22;55959;51.244;5.724;2023-05-07T11:43:26;24.60;54.50
68922;DHT22;55959;51.244;5.724;2023-05-07T11:45:52;24.60;54.00
68922;DHT22;55959;51.244;5.724;2023-05-07T11:48:18;24.60;53.90
68922;DHT22;55959;51.244;5.724;2023-05-07T11:53:31;24.70;52.90
68922;DHT22;55959;51.244;5.724;2023-05-07T11:56:06;24.70;52.90
68922;DHT22;55959;51.244;5.724;2023-05-07T11:58:35;24.60;52.20
68922;DHT22;55959;51.244;5.724;2023-05-07T12:01:02;24.60;52.70
68922;DHT22;55959;51.244;5.724;2023-05-07T12:03:28;24.60;52.00
68922;DHT22;55959;51.244;5.724;2023-05-07T12:05:54;24.60;52.30
68922;DHT22;55959;51.244;5.724;2023-05-07T12:08:21;24.50;52.20
68922;DHT22;55959;51.244;5.724;2023-05-07T12:10:49;24.50;51.80
68922;DHT22;55959;51.244;5.724;2023-05-07T12:13:16;24.40;52.40
68922;DHT22;55959;51.244;5.724;2023-05-07T12:15:43;24.40;51.90
68922;DHT22;55959;51.244;5.724;2023-05-07T12:18:10;24.40;52.20
68922;DHT22;55959;51.244;5.724;2023-05-07T12:20:36;24.40;52.20
68922;DHT22;55959;51.244;5.724;2023-05-07T12:23:03;24.30;52.30
68922;DHT22;55959;51.244;5.724;2023-05-07T12:25:36;24.30;52.60
68922;DHT22;55959;51.244;5.724;2023-05-07T12:28:03;24.20;53.40
68922;DHT22;55959;51.244;5.724;2023-05-07T12:30:40;24.20;53.80
68922;DHT22;55959;51.244;5.724;2023-05-07T12:33:07;24.10;54.70
68922;DHT22;55959;51.244;5.724;2023-05-07T12:35:39;24.00;55.20
68922;DHT22;55959;51.244;5.724;2023-05-07T12:38:11;23.80;55.70
68922;DHT22;55959;51.244;5.724;2023-05-07T12:40:46;23.70;56.10
68922;DHT22;55959;51.244;5.724;2023-05-07T12:43:19;23.40;56.50
68922;DHT22;55959;51.244;5.724;2023-05-07T12:45:49;23.30;58.00
68922;DHT22;55959;51.244;5.724;2023-05-07T12:48:15;23.10;57.50
68922;DHT22;55959;51.244;5.724;2023-05-07T12:50:41;22.90;58.00
68922;DHT22;55959;51.244;5.724;2023-05-07T12:53:09;22.70;59.00
68922;DHT22;55959;51.244;5.724;2023-05-07T12:55:53;22.60;59.60
68922;DHT22;55959;51.244;5.724;2023-05-07T13:00:55;22.40;60.90
68922;DHT22;55959;51.244;5.724;2023-05-07T13:03:34;22.20;59.90
68922;DHT22;55959;51.244;5.724;2023-05-07T13:06:07;22.10;60.40
68922;DHT22;55959;51.244;5.724;2023-05-07T13:08:41;21.90;60.50
68922;DHT22;55959;51.244;5.724;2023-05-07T13:11:11;21.80;60.20
68922;DHT22;55959;51.244;5.724;2023-05-07T13:13:39;21.70;60.70
68922;DHT22;55959;51.244;5.724;2023-05-07T13:16:07;21.60;60.80
68922;DHT22;55959;51.244;5.724;2023-05-07T13:18:34;21.40;61.20
68922;DHT22;55959;51.244;5.724;2023-05-07T13:21:00;21.30;61.80
68922;DHT22;55959;51.244;5.724;2023-05-07T13:23:27;21.20;62.80
68922;DHT22;55959;51.244;5.724;2023-05-07T13:25:54;21.20;63.00
68922;DHT22;55959;51.244;5.724;2023-05-07T13:28:21;21.10;63.00
68922;DHT22;55959;51.244;5.724;2023-05-07T13:30:47;21.10;63.80
68922;DHT22;55959;51.244;5.724;2023-05-07T13:33:13;21.00;64.00
68922;DHT22;55959;51.244;5.724;2023-05-07T13:35:40;21.00;63.90
68922;DHT22;55959;51.244;5.724;2023-05-07T13:38:06;21.00;63.50
68922;DHT22;55959;51.244;5.724;2023-05-07T13:40:32;21.00;63.80
68922;DHT22;55959;51.244;5.724;2023-05-07T13:42:58;21.00;63.80
68922;DHT22;55959;51.244;5.724;2023-05-07T13:45:25;21.00;64.20
68922;DHT22;55959;51.244;5.724;2023-05-07T13:47:51;21.00;64.80
68922;DHT22;55959;51.244;5.724;2023-05-07T13:50:17;21.00;64.80
68922;DHT22;55959;51.244;5.724;2023-05-07T13:52:44;21.00;64.70
68922;DHT22;55959;51.244;5.724;2023-05-07T13:55:22;21.00;64.60
68922;DHT22;55959;51.244;5.724;2023-05-07T13:57:58;21.00;65.00
68922;DHT22;55959;51.244;5.724;2023-05-07T14:00:26;21.10;65.70
68922;DHT22;55959;51.244;5.724;2023-05-07T14:02:52;21.20;65.80
68922;DHT22;55959;51.244;5.724;2023-05-07T14:05:19;21.20;65.70
68922;DHT22;55959;51.244;5.724;2023-05-07T14:07:45;21.30;65.30
68922;DHT22;55959;51.244;5.724;2023-05-07T14:10:11;21.30;66.40
68922;DHT22;55959;51.244;5.724;2023-05-07T14:12:37;21.40;65.70
68922;DHT22;55959;51.244;5.724;2023-05-07T14:15:03;21.50;66.10
68922;DHT22;55959;51.244;5.724;2023-05-07T14:17:29;21.60;66.50
68922;DHT22;55959;51.244;5.724;2023-05-07T14:19:55;21.70;65.30
68922;DHT22;55959;51.244;5.724;2023-05-07T14:22:21;21.80;63.90
68922;DHT22;55959;51.244;5.724;2023-05-07T14:24:48;21.80;64.10
68922;DHT22;55959;51.244;5.724;2023-05-07T14:27:14;21.90;64.00
68922;DHT22;55959;51.244;5.724;2023-05-07T14:29:40;21.90;64.30
68922;DHT22;55959;51.244;5.724;2023-05-07T14:32:06;22.00;64.80
68922;DHT22;55959;51.244;5.724;2023-05-07T14:34:32;22.10;64.90
68922;DHT22;55959;51.244;5.724;2023-05-07T14:36:59;22.10;63.10
68922;DHT22;55959;51.244;5.724;2023-05-07T14:39:25;22.20;63.80
68922;DHT22;55959;51.244;5.724;2023-05-07T14:41:51;22.20;65.80
68922;DHT22;55959;51.244;5.724;2023-05-07T14:44:20;22.30;64.40
68922;DHT22;55959;51.244;5.724;2023-05-07T14:46:46;22.40;64.60
68922;DHT22;55959;51.244;5.724;2023-05-07T14:49:11;22.40;64.70
68922;DHT22;55959;51.244;5.724;2023-05-07T14:51:45;22.50;65.30
68922;DHT22;55959;51.244;5.724;2023-05-07T14:54:15;22.60;63.80
68922;DHT22;55959;51.244;5.724;2023-05-07T14:56:42;22.60;63.10
68922;DHT22;55959;51.244;5.724;2023-05-07T14:59:08;22.70;63.50
68922;DHT22;55959;51.244;5.724;2023-05-07T15:01:35;22.70;63.70
68922;DHT22;55959;51.244;5.724;2023-05-07T15:04:02;22.70;63.90
68922;DHT22;55959;51.244;5.724;2023-05-07T15:06:29;22.80;64.10
68922;DHT22;55959;51.244;5.724;2023-05-07T15:08:55;22.90;63.80
68922;DHT22;55959;51.244;5.724;2023-05-07T15:11:21;22.90;63.80
68922;DHT22;55959;51.244;5.724;2023-05-07T15:13:46;23.00;64.50
68922;DHT22;55959;51.244;5.724;2023-05-07T15:16:13;23.00;63.70
68922;DHT22;55959;51.244;5.724;2023-05-07T15:18:39;23.00;63.00
68922;DHT22;55959;51.244;5.724;2023-05-07T15:21:05;23.00;63.50
68922;DHT22;55959;51.244;5.724;2023-05-07T15:23:31;23.10;64.10
68922;DHT22;55959;51.244;5.724;2023-05-07T15:25:57;23.10;64.10
68922;DHT22;55959;51.244;5.724;2023-05-07T15:28:22;23.20;63.00
68922;DHT22;55959;51.244;5.724;2023-05-07T15:30:50;23.20;63.10
68922;DHT22;55959;51.244;5.724;2023-05-07T15:33:16;23.20;63.30
68922;DHT22;55959;51.244;5.724;2023-05-07T15:35:42;23.20;63.10
68922;DHT22;55959;51.244;5.724;2023-05-07T15:38:07;23.30;63.60
68922;DHT22;55959;51.244;5.724;2023-05-07T15:40:34;23.30;63.50
68922;DHT22;55959;51.244;5.724;2023-05-07T15:43:00;23.30;63.10
68922;DHT22;55959;51.244;5.724;2023-05-07T15:45:29;23.40;63.50
68922;DHT22;55959;51.244;5.724;2023-05-07T15:47:55;23.40;63.70
68922;DHT22;55959;51.244;5.724;2023-05-07T15:50:21;23.40;63.50
68922;DHT22;55959;51.244;5.724;2023-05-07T15:52:46;23.40;63.50